sensor_id;sensor_type;location;lat;lon;timestamp;P1;durP1;ratioP1;P2;durP2;ratioP2
45784;SDS011;31489;51.404;5.474;2024-02-26T00:00:06;3.50;;;2.30;;
45784;SDS011;31489;51.404;5.474;2024-02-26T00:02:35;3.95;;;1.83;;
45784;SDS011;31489;51.404;5.474;2024-02-26T00:05:05;2.88;;;1.90;;
45784;SDS011;31489;51.404;5.474;2024-02-26T00:07:31;4.88;;;2.08;;
45784;SDS011;31489;51.404;5.474;2024-02-26T00:09:57;4.20;;;1.90;;
45784;SDS011;31489;51.404;5.474;2024-02-26T00:12:22;3.05;;;2.10;;
45784;SDS011;31489;51.404;5.474;2024-02-26T00:14:50;2.70;;;1.77;;
45784;SDS011;31489;51.404;5.474;2024-02-26T00:17:20;3.15;;;2.00;;
45784;SDS011;31489;51.404;5.474;2024-02-26T00:19:45;3.03;;;1.67;;
45784;SDS011;31489;51.404;5.474;2024-02-26T00:22:11;2.20;;;1.52;;
45784;SDS011;31489;51.404;5.474;2024-02-26T00:24:37;3.53;;;1.80;;
45784;SDS011;31489;51.404;5.474;2024-02-26T00:27:02;2.13;;;1.73;;
45784;SDS011;31489;51.404;5.474;2024-02-26T00:29:28;4.70;;;2.10;;
45784;SDS011;31489;51.404;5.474;2024-02-26T00:31:54;3.15;;;1.90;;
45784;SDS011;31489;51.404;5.474;2024-02-26T00:34:19;4.03;;;1.83;;
45784;SDS011;31489;51.404;5.474;2024-02-26T00:36:45;4.88;;;2.05;;
45784;SDS011;31489;51.404;5.474;2024-02-26T00:39:11;4.53;;;2.08;;
45784;SDS011;31489;51.404;5.474;2024-02-26T00:41:40;4.95;;;2.10;;
45784;SDS011;31489;51.404;5.474;2024-02-26T00:44:06;2.72;;;1.85;;
45784;SDS011;31489;51.404;5.474;2024-02-26T00:46:32;2.05;;;1.70;;
45784;SDS011;31489;51.404;5.474;2024-02-26T00:48:58;3.50;;;2.00;;
45784;SDS011;31489;51.404;5.474;2024-02-26T00:51:23;3.50;;;2.15;;
45784;SDS011;31489;51.404;5.474;2024-02-26T00:53:49;3.05;;;2.00;;
45784;SDS011;31489;51.404;5.474;2024-02-26T00:56:14;2.65;;;1.77;;
45784;SDS011;31489;51.404;5.474;2024-02-26T00:58:40;2.85;;;2.13;;
45784;SDS011;31489;51.404;5.474;2024-02-26T01:01:05;3.40;;;2.30;;
45784;SDS011;31489;51.404;5.474;2024-02-26T01:03:31;4.93;;;2.13;;
45784;SDS011;31489;51.404;5.474;2024-02-26T01:05:57;3.72;;;2.30;;
45784;SDS011;31489;51.404;5.474;2024-02-26T01:08:22;4.20;;;2.45;;
45784;SDS011;31489;51.404;5.474;2024-02-26T01:10:48;7.05;;;2.78;;
45784;SDS011;31489;51.404;5.474;2024-02-26T01:13:13;5.90;;;2.45;;
45784;SDS011;31489;51.404;5.474;2024-02-26T01:15:39;6.18;;;2.45;;
45784;SDS011;31489;51.404;5.474;2024-02-26T01:18:05;7.80;;;2.40;;
45784;SDS011;31489;51.404;5.474;2024-02-26T01:20:30;4.32;;;2.40;;
45784;SDS011;31489;51.404;5.474;2024-02-26T01:22:56;5.07;;;2.60;;
45784;SDS011;31489;51.404;5.474;2024-02-26T01:25:21;3.95;;;2.60;;
45784;SDS011;31489;51.404;5.474;2024-02-26T01:27:47;4.40;;;2.45;;
45784;SDS011;31489;51.404;5.474;2024-02-26T01:30:13;3.78;;;2.35;;
45784;SDS011;31489;51.404;5.474;2024-02-26T01:32:41;5.80;;;2.75;;
45784;SDS011;31489;51.404;5.474;2024-02-26T01:35:06;5.32;;;2.83;;
45784;SDS011;31489;51.404;5.474;2024-02-26T01:37:36;4.72;;;2.63;;
45784;SDS011;31489;51.404;5.474;2024-02-26T01:40:03;3.13;;;2.30;;
45784;SDS011;31489;51.404;5.474;2024-02-26T01:42:29;4.70;;;2.90;;
45784;SDS011;31489;51.404;5.474;2024-02-26T01:44:59;4.80;;;2.58;;
45784;SDS011;31489;51.404;5.474;2024-02-26T01:47:24;5.07;;;2.70;;
45784;SDS011;31489;51.404;5.474;2024-02-26T01:49:51;6.70;;;2.50;;
45784;SDS011;31489;51.404;5.474;2024-02-26T01:52:17;4.70;;;2.72;;
45784;SDS011;31489;51.404;5.474;2024-02-26T01:54:43;4.82;;;2.40;;
45784;SDS011;31489;51.404;5.474;2024-02-26T01:57:11;5.03;;;2.78;;
45784;SDS011;31489;51.404;5.474;2024-02-26T01:59:37;4.78;;;2.28;;
45784;SDS011;31489;51.404;5.474;2024-02-26T02:02:05;5.43;;;2.70;;
45784;SDS011;31489;51.404;5.474;2024-02-26T02:04:32;5.85;;;2.75;;
45784;SDS011;31489;51.404;5.474;2024-02-26T02:06:58;3.78;;;2.50;;
45784;SDS011;31489;51.404;5.474;2024-02-26T02:09:26;4.97;;;2.65;;
45784;SDS011;31489;51.404;5.474;2024-02-26T02:11:52;5.82;;;2.53;;
45784;SDS011;31489;51.404;5.474;2024-02-26T02:14:18;3.58;;;2.13;;
45784;SDS011;31489;51.404;5.474;2024-02-26T02:16:43;4.32;;;2.53;;
45784;SDS011;31489;51.404;5.474;2024-02-26T02:19:09;3.30;;;1.80;;
45784;SDS011;31489;51.404;5.474;2024-02-26T02:21:35;3.83;;;2.30;;
45784;SDS011;31489;51.404;5.474;2024-02-26T02:24:00;5.43;;;2.20;;
45784;SDS011;31489;51.404;5.474;2024-02-26T02:26:26;3.85;;;2.40;;
45784;SDS011;31489;51.404;5.474;2024-02-26T02:28:51;4.50;;;2.10;;
45784;SDS011;31489;51.404;5.474;2024-02-26T02:31:18;5.45;;;2.20;;
45784;SDS011;31489;51.404;5.474;2024-02-26T02:33:44;3.70;;;1.85;;
45784;SDS011;31489;51.404;5.474;2024-02-26T02:36:09;3.15;;;2.17;;
45784;SDS011;31489;51.404;5.474;2024-02-26T02:38:36;4.40;;;2.40;;
45784;SDS011;31489;51.404;5.474;2024-02-26T02:41:02;3.85;;;2.08;;
45784;SDS011;31489;51.404;5.474;2024-02-26T02:43:28;3.30;;;2.33;;
45784;SDS011;31489;51.404;5.474;2024-02-26T02:45:54;3.20;;;1.95;;
45784;SDS011;31489;51.404;5.474;2024-02-26T02:48:19;2.15;;;1.95;;
45784;SDS011;31489;51.404;5.474;2024-02-26T02:50:45;4.13;;;2.10;;
45784;SDS011;31489;51.404;5.474;2024-02-26T02:53:11;3.20;;;2.33;;
45784;SDS011;31489;51.404;5.474;2024-02-26T02:55:36;4.30;;;2.30;;
45784;SDS011;31489;51.404;5.474;2024-02-26T02:58:02;3.47;;;1.95;;
45784;SDS011;31489;51.404;5.474;2024-02-26T03:00:28;4.35;;;2.40;;
45784;SDS011;31489;51.404;5.474;2024-02-26T03:02:53;6.38;;;2.60;;
45784;SDS011;31489;51.404;5.474;2024-02-26T03:05:19;4.60;;;2.63;;
45784;SDS011;31489;51.404;5.474;2024-02-26T03:07:44;3.60;;;2.20;;
45784;SDS011;31489;51.404;5.474;2024-02-26T03:10:10;4.05;;;2.42;;
45784;SDS011;31489;51.404;5.474;2024-02-26T03:12:36;3.28;;;2.30;;
45784;SDS011;31489;51.404;5.474;2024-02-26T03:15:01;4.13;;;2.42;;
45784;SDS011;31489;51.404;5.474;2024-02-26T03:17:30;3.65;;;2.13;;
45784;SDS011;31489;51.404;5.474;2024-02-26T03:19:56;3.40;;;2.17;;
45784;SDS011;31489;51.404;5.474;2024-02-26T03:22:22;2.53;;;1.90;;
45784;SDS011;31489;51.404;5.474;2024-02-26T03:24:47;4.88;;;2.58;;
45784;SDS011;31489;51.404;5.474;2024-02-26T03:27:13;5.47;;;2.25;;
45784;SDS011;31489;51.404;5.474;2024-02-26T03:29:39;2.50;;;1.77;;
45784;SDS011;31489;51.404;5.474;2024-02-26T03:32:05;2.65;;;2.10;;
45784;SDS011;31489;51.404;5.474;2024-02-26T03:34:32;1.88;;;1.67;;
45784;SDS011;31489;51.404;5.474;2024-02-26T03:36:59;3.45;;;2.05;;
45784;SDS011;31489;51.404;5.474;2024-02-26T03:39:25;3.20;;;1.88;;
45784;SDS011;31489;51.404;5.474;2024-02-26T03:41:51;3.33;;;1.80;;
45784;SDS011;31489;51.404;5.474;2024-02-26T03:44:17;2.03;;;1.80;;
45784;SDS011;31489;51.404;5.474;2024-02-26T03:46:42;1.90;;;1.70;;
45784;SDS011;31489;51.404;5.474;2024-02-26T03:49:08;2.08;;;1.88;;
45784;SDS011;31489;51.404;5.474;2024-02-26T03:51:34;1.83;;;1.55;;
45784;SDS011;31489;51.404;5.474;2024-02-26T03:54:00;1.77;;;1.65;;
45784;SDS011;31489;51.404;5.474;2024-02-26T03:56:26;2.15;;;1.70;;
45784;SDS011;31489;51.404;5.474;2024-02-26T03:58:52;3.45;;;1.77;;
45784;SDS011;31489;51.404;5.474;2024-02-26T04:01:18;3.05;;;1.70;;
45784;SDS011;31489;51.404;5.474;2024-02-26T04:03:44;3.97;;;1.75;;
45784;SDS011;31489;51.404;5.474;2024-02-26T04:06:10;2.33;;;1.77;;
45784;SDS011;31489;51.404;5.474;2024-02-26T04:08:36;2.60;;;1.60;;
45784;SDS011;31489;51.404;5.474;2024-02-26T04:11:02;3.10;;;1.80;;
45784;SDS011;31489;51.404;5.474;2024-02-26T04:13:32;1.85;;;1.50;;
45784;SDS011;31489;51.404;5.474;2024-02-26T04:15:58;1.90;;;1.60;;
45784;SDS011;31489;51.404;5.474;2024-02-26T04:18:26;2.40;;;1.75;;
45784;SDS011;31489;51.404;5.474;2024-02-26T04:20:52;2.15;;;1.70;;
45784;SDS011;31489;51.404;5.474;2024-02-26T04:23:18;2.10;;;1.65;;
45784;SDS011;31489;51.404;5.474;2024-02-26T04:25:43;1.60;;;1.50;;
45784;SDS011;31489;51.404;5.474;2024-02-26T04:28:09;3.58;;;1.50;;
45784;SDS011;31489;51.404;5.474;2024-02-26T04:30:35;2.38;;;2.00;;
45784;SDS011;31489;51.404;5.474;2024-02-26T04:33:01;1.70;;;1.60;;
45784;SDS011;31489;51.404;5.474;2024-02-26T04:35:26;2.38;;;1.95;;
45784;SDS011;31489;51.404;5.474;2024-02-26T04:37:52;3.00;;;1.65;;
45784;SDS011;31489;51.404;5.474;2024-02-26T04:40:17;3.13;;;1.80;;
45784;SDS011;31489;51.404;5.474;2024-02-26T04:42:43;2.60;;;1.77;;
45784;SDS011;31489;51.404;5.474;2024-02-26T04:45:09;3.72;;;1.88;;
45784;SDS011;31489;51.404;5.474;2024-02-26T04:47:34;1.98;;;1.73;;
45784;SDS011;31489;51.404;5.474;2024-02-26T04:50:00;1.88;;;1.35;;
45784;SDS011;31489;51.404;5.474;2024-02-26T04:52:25;2.13;;;1.75;;
45784;SDS011;31489;51.404;5.474;2024-02-26T04:54:51;1.85;;;1.70;;
45784;SDS011;31489;51.404;5.474;2024-02-26T04:57:17;1.88;;;1.65;;
45784;SDS011;31489;51.404;5.474;2024-02-26T04:59:45;2.58;;;1.65;;
45784;SDS011;31489;51.404;5.474;2024-02-26T05:02:11;2.50;;;1.77;;
45784;SDS011;31489;51.404;5.474;2024-02-26T05:04:37;1.35;;;1.25;;
45784;SDS011;31489;51.404;5.474;2024-02-26T05:07:03;2.15;;;1.95;;
45784;SDS011;31489;51.404;5.474;2024-02-26T05:09:29;2.22;;;1.77;;
45784;SDS011;31489;51.404;5.474;2024-02-26T05:11:55;2.08;;;1.70;;
45784;SDS011;31489;51.404;5.474;2024-02-26T05:14:20;1.90;;;1.60;;
45784;SDS011;31489;51.404;5.474;2024-02-26T05:16:47;3.00;;;1.85;;
45784;SDS011;31489;51.404;5.474;2024-02-26T05:19:13;2.40;;;1.88;;
45784;SDS011;31489;51.404;5.474;2024-02-26T05:21:39;1.77;;;1.67;;
45784;SDS011;31489;51.404;5.474;2024-02-26T05:24:05;2.08;;;1.83;;
45784;SDS011;31489;51.404;5.474;2024-02-26T05:26:31;2.42;;;1.52;;
45784;SDS011;31489;51.404;5.474;2024-02-26T05:28:56;2.00;;;1.80;;
45784;SDS011;31489;51.404;5.474;2024-02-26T05:31:25;2.88;;;2.08;;
45784;SDS011;31489;51.404;5.474;2024-02-26T05:33:51;1.80;;;1.67;;
45784;SDS011;31489;51.404;5.474;2024-02-26T05:36:20;1.73;;;1.63;;
45784;SDS011;31489;51.404;5.474;2024-02-26T05:38:47;2.00;;;1.70;;
45784;SDS011;31489;51.404;5.474;2024-02-26T05:41:16;1.80;;;1.70;;
45784;SDS011;31489;51.404;5.474;2024-02-26T05:43:48;2.80;;;1.65;;
45784;SDS011;31489;51.404;5.474;2024-02-26T05:47:08;2.17;;;1.80;;
45784;SDS011;31489;51.404;5.474;2024-02-26T05:49:34;2.03;;;1.80;;
45784;SDS011;31489;51.404;5.474;2024-02-26T05:52:00;2.42;;;1.55;;
45784;SDS011;31489;51.404;5.474;2024-02-26T05:54:25;2.40;;;1.40;;
45784;SDS011;31489;51.404;5.474;2024-02-26T05:56:51;2.55;;;1.60;;
45784;SDS011;31489;51.404;5.474;2024-02-26T05:59:17;2.60;;;1.80;;
45784;SDS011;31489;51.404;5.474;2024-02-26T06:01:42;1.75;;;1.65;;
45784;SDS011;31489;51.404;5.474;2024-02-26T06:04:08;2.90;;;1.65;;
45784;SDS011;31489;51.404;5.474;2024-02-26T06:06:34;2.20;;;1.52;;
45784;SDS011;31489;51.404;5.474;2024-02-26T06:08:59;3.47;;;1.52;;
45784;SDS011;31489;51.404;5.474;2024-02-26T06:11:25;2.72;;;1.77;;
45784;SDS011;31489;51.404;5.474;2024-02-26T06:13:51;2.38;;;1.50;;
45784;SDS011;31489;51.404;5.474;2024-02-26T06:16:16;2.80;;;1.80;;
45784;SDS011;31489;51.404;5.474;2024-02-26T06:18:42;2.53;;;1.63;;
45784;SDS011;31489;51.404;5.474;2024-02-26T06:21:11;1.63;;;1.40;;
45784;SDS011;31489;51.404;5.474;2024-02-26T06:23:37;1.65;;;1.55;;
45784;SDS011;31489;51.404;5.474;2024-02-26T06:26:04;2.28;;;1.52;;
45784;SDS011;31489;51.404;5.474;2024-02-26T06:28:29;2.00;;;1.70;;
45784;SDS011;31489;51.404;5.474;2024-02-26T06:30:57;4.47;;;2.00;;
45784;SDS011;31489;51.404;5.474;2024-02-26T06:33:23;1.75;;;1.55;;
45784;SDS011;31489;51.404;5.474;2024-02-26T06:35:48;1.80;;;1.60;;
45784;SDS011;31489;51.404;5.474;2024-02-26T06:38:14;2.70;;;1.60;;
45784;SDS011;31489;51.404;5.474;2024-02-26T06:40:40;3.70;;;1.83;;
45784;SDS011;31489;51.404;5.474;2024-02-26T06:43:06;2.60;;;1.70;;
45784;SDS011;31489;51.404;5.474;2024-02-26T06:45:31;2.08;;;1.50;;
45784;SDS011;31489;51.404;5.474;2024-02-26T06:47:57;2.25;;;1.60;;
45784;SDS011;31489;51.404;5.474;2024-02-26T06:50:23;4.05;;;1.77;;
45784;SDS011;31489;51.404;5.474;2024-02-26T06:52:49;2.00;;;1.58;;
45784;SDS011;31489;51.404;5.474;2024-02-26T06:55:14;2.30;;;1.70;;
45784;SDS011;31489;51.404;5.474;2024-02-26T06:57:40;1.70;;;1.60;;
45784;SDS011;31489;51.404;5.474;2024-02-26T07:00:08;1.67;;;1.52;;
45784;SDS011;31489;51.404;5.474;2024-02-26T07:02:39;1.95;;;1.75;;
45784;SDS011;31489;51.404;5.474;2024-02-26T07:05:05;1.73;;;1.45;;
45784;SDS011;31489;51.404;5.474;2024-02-26T07:07:31;1.63;;;1.40;;
45784;SDS011;31489;51.404;5.474;2024-02-26T07:09:57;1.95;;;1.60;;
45784;SDS011;31489;51.404;5.474;2024-02-26T07:12:23;2.17;;;1.67;;
45784;SDS011;31489;51.404;5.474;2024-02-26T07:14:49;2.42;;;1.70;;
45784;SDS011;31489;51.404;5.474;2024-02-26T07:17:15;2.58;;;1.67;;
45784;SDS011;31489;51.404;5.474;2024-02-26T07:19:41;2.67;;;1.55;;
45784;SDS011;31489;51.404;5.474;2024-02-26T07:22:07;2.60;;;2.00;;
45784;SDS011;31489;51.404;5.474;2024-02-26T07:24:33;2.38;;;1.92;;
45784;SDS011;31489;51.404;5.474;2024-02-26T07:26:59;1.83;;;1.70;;
45784;SDS011;31489;51.404;5.474;2024-02-26T07:29:33;3.20;;;1.75;;
45784;SDS011;31489;51.404;5.474;2024-02-26T07:32:02;2.92;;;2.10;;
45784;SDS011;31489;51.404;5.474;2024-02-26T07:34:28;1.83;;;1.70;;
45784;SDS011;31489;51.404;5.474;2024-02-26T07:36:55;4.07;;;1.90;;
45784;SDS011;31489;51.404;5.474;2024-02-26T07:39:21;2.47;;;2.28;;
45784;SDS011;31489;51.404;5.474;2024-02-26T07:41:47;2.92;;;2.30;;
45784;SDS011;31489;51.404;5.474;2024-02-26T07:44:15;3.00;;;2.35;;
45784;SDS011;31489;51.404;5.474;2024-02-26T07:46:40;2.35;;;2.15;;
45784;SDS011;31489;51.404;5.474;2024-02-26T07:49:06;3.05;;;2.05;;
45784;SDS011;31489;51.404;5.474;2024-02-26T07:51:33;2.40;;;2.20;;
45784;SDS011;31489;51.404;5.474;2024-02-26T07:53:59;3.65;;;2.47;;
45784;SDS011;31489;51.404;5.474;2024-02-26T07:56:25;5.25;;;2.45;;
45784;SDS011;31489;51.404;5.474;2024-02-26T07:58:51;2.60;;;2.40;;
45784;SDS011;31489;51.404;5.474;2024-02-26T08:01:17;3.08;;;2.50;;
45784;SDS011;31489;51.404;5.474;2024-02-26T08:03:42;3.67;;;2.53;;
45784;SDS011;31489;51.404;5.474;2024-02-26T08:06:08;2.97;;;2.55;;
45784;SDS011;31489;51.404;5.474;2024-02-26T08:08:34;3.13;;;2.50;;
45784;SDS011;31489;51.404;5.474;2024-02-26T08:11:00;2.78;;;2.55;;
45784;SDS011;31489;51.404;5.474;2024-02-26T08:13:25;3.38;;;2.60;;
45784;SDS011;31489;51.404;5.474;2024-02-26T08:15:54;2.40;;;2.20;;
45784;SDS011;31489;51.404;5.474;2024-02-26T08:18:20;2.60;;;2.40;;
45784;SDS011;31489;51.404;5.474;2024-02-26T08:20:46;2.58;;;2.30;;
45784;SDS011;31489;51.404;5.474;2024-02-26T08:23:13;3.67;;;2.30;;
45784;SDS011;31489;51.404;5.474;2024-02-26T08:25:39;4.63;;;2.70;;
45784;SDS011;31489;51.404;5.474;2024-02-26T08:28:05;4.93;;;2.53;;
45784;SDS011;31489;51.404;5.474;2024-02-26T08:30:31;2.03;;;1.83;;
45784;SDS011;31489;51.404;5.474;2024-02-26T08:32:57;2.67;;;2.47;;
45784;SDS011;31489;51.404;5.474;2024-02-26T08:35:22;3.03;;;2.33;;
45784;SDS011;31489;51.404;5.474;2024-02-26T08:37:48;4.95;;;2.72;;
45784;SDS011;31489;51.404;5.474;2024-02-26T08:40:14;3.15;;;2.63;;
45784;SDS011;31489;51.404;5.474;2024-02-26T08:42:40;2.90;;;2.10;;
45784;SDS011;31489;51.404;5.474;2024-02-26T08:45:06;3.03;;;2.42;;
45784;SDS011;31489;51.404;5.474;2024-02-26T08:47:33;2.40;;;2.20;;
45784;SDS011;31489;51.404;5.474;2024-02-26T08:49:58;2.17;;;1.98;;
45784;SDS011;31489;51.404;5.474;2024-02-26T08:52:24;2.70;;;2.50;;
45784;SDS011;31489;51.404;5.474;2024-02-26T08:54:50;3.97;;;2.05;;
45784;SDS011;31489;51.404;5.474;2024-02-26T08:57:15;2.90;;;2.20;;
45784;SDS011;31489;51.404;5.474;2024-02-26T08:59:41;4.13;;;2.15;;
45784;SDS011;31489;51.404;5.474;2024-02-26T09:02:07;2.63;;;2.42;;
45784;SDS011;31489;51.404;5.474;2024-02-26T09:04:34;3.30;;;2.00;;
45784;SDS011;31489;51.404;5.474;2024-02-26T09:07:00;3.35;;;2.25;;
45784;SDS011;31489;51.404;5.474;2024-02-26T09:09:27;2.20;;;2.00;;
45784;SDS011;31489;51.404;5.474;2024-02-26T09:11:53;2.65;;;1.98;;
45784;SDS011;31489;51.404;5.474;2024-02-26T09:14:20;2.80;;;2.20;;
45784;SDS011;31489;51.404;5.474;2024-02-26T09:16:46;3.25;;;2.33;;
45784;SDS011;31489;51.404;5.474;2024-02-26T09:19:16;3.17;;;2.22;;
45784;SDS011;31489;51.404;5.474;2024-02-26T09:21:42;2.97;;;1.92;;
45784;SDS011;31489;51.404;5.474;2024-02-26T09:24:11;2.72;;;2.22;;
45784;SDS011;31489;51.404;5.474;2024-02-26T09:26:38;2.83;;;2.30;;
45784;SDS011;31489;51.404;5.474;2024-02-26T09:29:04;3.05;;;2.53;;
45784;SDS011;31489;51.404;5.474;2024-02-26T09:31:30;2.90;;;2.03;;
45784;SDS011;31489;51.404;5.474;2024-02-26T09:33:56;2.63;;;1.90;;
45784;SDS011;31489;51.404;5.474;2024-02-26T09:36:22;3.45;;;2.33;;
45784;SDS011;31489;51.404;5.474;2024-02-26T09:38:48;2.50;;;2.28;;
45784;SDS011;31489;51.404;5.474;2024-02-26T09:41:20;3.90;;;2.35;;
45784;SDS011;31489;51.404;5.474;2024-02-26T09:43:45;2.53;;;2.10;;
45784;SDS011;31489;51.404;5.474;2024-02-26T09:46:19;3.67;;;2.45;;
45784;SDS011;31489;51.404;5.474;2024-02-26T09:48:45;3.60;;;2.28;;
45784;SDS011;31489;51.404;5.474;2024-02-26T09:51:12;3.97;;;2.30;;
45784;SDS011;31489;51.404;5.474;2024-02-26T09:53:40;3.05;;;2.30;;
45784;SDS011;31489;51.404;5.474;2024-02-26T09:56:14;3.90;;;2.60;;
45784;SDS011;31489;51.404;5.474;2024-02-26T09:58:41;3.60;;;2.55;;
45784;SDS011;31489;51.404;5.474;2024-02-26T10:01:11;3.47;;;2.45;;
45784;SDS011;31489;51.404;5.474;2024-02-26T10:03:41;2.25;;;2.05;;
45784;SDS011;31489;51.404;5.474;2024-02-26T10:06:10;2.78;;;2.30;;
45784;SDS011;31489;51.404;5.474;2024-02-26T10:08:36;3.50;;;2.85;;
45784;SDS011;31489;51.404;5.474;2024-02-26T10:11:04;2.55;;;2.35;;
45784;SDS011;31489;51.404;5.474;2024-02-26T10:13:31;2.70;;;2.50;;
45784;SDS011;31489;51.404;5.474;2024-02-26T10:15:57;4.43;;;2.83;;
45784;SDS011;31489;51.404;5.474;2024-02-26T10:18:23;3.17;;;2.47;;
45784;SDS011;31489;51.404;5.474;2024-02-26T10:21:02;3.60;;;2.83;;
45784;SDS011;31489;51.404;5.474;2024-02-26T10:23:28;3.58;;;2.63;;
45784;SDS011;31489;51.404;5.474;2024-02-26T10:25:56;2.33;;;2.08;;
45784;SDS011;31489;51.404;5.474;2024-02-26T10:28:22;3.25;;;2.83;;
45784;SDS011;31489;51.404;5.474;2024-02-26T10:30:48;2.95;;;2.35;;
45784;SDS011;31489;51.404;5.474;2024-02-26T10:33:16;2.58;;;2.30;;
45784;SDS011;31489;51.404;5.474;2024-02-26T10:35:46;2.92;;;2.42;;
45784;SDS011;31489;51.404;5.474;2024-02-26T10:38:12;2.65;;;2.22;;
45784;SDS011;31489;51.404;5.474;2024-02-26T10:40:38;2.63;;;2.20;;
45784;SDS011;31489;51.404;5.474;2024-02-26T10:43:04;3.05;;;2.70;;
45784;SDS011;31489;51.404;5.474;2024-02-26T10:45:30;3.58;;;2.60;;
45784;SDS011;31489;51.404;5.474;2024-02-26T10:48:09;2.90;;;2.40;;
45784;SDS011;31489;51.404;5.474;2024-02-26T10:50:37;3.63;;;2.75;;
45784;SDS011;31489;51.404;5.474;2024-02-26T10:53:04;3.38;;;2.85;;
45784;SDS011;31489;51.404;5.474;2024-02-26T10:55:35;3.60;;;2.92;;
45784;SDS011;31489;51.404;5.474;2024-02-26T10:58:02;3.63;;;2.60;;
45784;SDS011;31489;51.404;5.474;2024-02-26T11:00:29;3.78;;;2.92;;
45784;SDS011;31489;51.404;5.474;2024-02-26T11:02:56;5.05;;;3.22;;
45784;SDS011;31489;51.404;5.474;2024-02-26T11:05:23;3.72;;;3.33;;
45784;SDS011;31489;51.404;5.474;2024-02-26T11:07:50;3.70;;;2.65;;
45784;SDS011;31489;51.404;5.474;2024-02-26T11:10:17;3.67;;;3.13;;
45784;SDS011;31489;51.404;5.474;2024-02-26T11:12:44;3.40;;;3.10;;
45784;SDS011;31489;51.404;5.474;2024-02-26T11:15:11;4.32;;;3.15;;
45784;SDS011;31489;51.404;5.474;2024-02-26T11:17:37;4.07;;;3.30;;
45784;SDS011;31489;51.404;5.474;2024-02-26T11:20:03;4.72;;;3.40;;
45784;SDS011;31489;51.404;5.474;2024-02-26T11:22:30;5.07;;;3.65;;
45784;SDS011;31489;51.404;5.474;2024-02-26T11:24:57;4.10;;;3.60;;
45784;SDS011;31489;51.404;5.474;2024-02-26T11:27:30;3.88;;;3.30;;
45784;SDS011;31489;51.404;5.474;2024-02-26T11:29:59;6.00;;;3.50;;
45784;SDS011;31489;51.404;5.474;2024-02-26T11:32:27;4.25;;;3.42;;
45784;SDS011;31489;51.404;5.474;2024-02-26T11:34:55;4.53;;;3.97;;
45784;SDS011;31489;51.404;5.474;2024-02-26T11:37:22;4.40;;;3.80;;
45784;SDS011;31489;51.404;5.474;2024-02-26T11:39:48;6.05;;;3.88;;
45784;SDS011;31489;51.404;5.474;2024-02-26T11:42:22;4.07;;;3.67;;
45784;SDS011;31489;51.404;5.474;2024-02-26T11:44:50;5.03;;;4.18;;
45784;SDS011;31489;51.404;5.474;2024-02-26T11:47:20;4.63;;;3.78;;
45784;SDS011;31489;51.404;5.474;2024-02-26T11:49:47;4.68;;;3.88;;
45784;SDS011;31489;51.404;5.474;2024-02-26T11:52:16;4.00;;;3.60;;
45784;SDS011;31489;51.404;5.474;2024-02-26T11:54:46;4.15;;;3.75;;
45784;SDS011;31489;51.404;5.474;2024-02-26T11:57:30;5.28;;;4.05;;
45784;SDS011;31489;51.404;5.474;2024-02-26T12:02:43;4.80;;;3.85;;
45784;SDS011;31489;51.404;5.474;2024-02-26T12:05:14;5.72;;;4.43;;
45784;SDS011;31489;51.404;5.474;2024-02-26T12:07:45;5.07;;;4.55;;
45784;SDS011;31489;51.404;5.474;2024-02-26T12:10:15;5.35;;;4.80;;
45784;SDS011;31489;51.404;5.474;2024-02-26T12:12:57;7.45;;;5.30;;
45784;SDS011;31489;51.404;5.474;2024-02-26T12:15:30;6.03;;;5.28;;
45784;SDS011;31489;51.404;5.474;2024-02-26T12:17:57;6.43;;;5.68;;
45784;SDS011;31489;51.404;5.474;2024-02-26T12:20:25;6.22;;;5.35;;
45784;SDS011;31489;51.404;5.474;2024-02-26T12:22:51;7.18;;;5.47;;
45784;SDS011;31489;51.404;5.474;2024-02-26T12:25:25;6.15;;;5.50;;
45784;SDS011;31489;51.404;5.474;2024-02-26T12:27:52;8.00;;;5.80;;
45784;SDS011;31489;51.404;5.474;2024-02-26T12:30:21;8.13;;;5.90;;
45784;SDS011;31489;51.404;5.474;2024-02-26T12:32:55;7.55;;;5.93;;
45784;SDS011;31489;51.404;5.474;2024-02-26T12:35:22;6.45;;;5.50;;
45784;SDS011;31489;51.404;5.474;2024-02-26T12:37:49;6.90;;;6.20;;
45784;SDS011;31489;51.404;5.474;2024-02-26T12:40:16;7.30;;;5.70;;
45784;SDS011;31489;51.404;5.474;2024-02-26T12:42:42;7.55;;;6.00;;
45784;SDS011;31489;51.404;5.474;2024-02-26T12:45:09;9.93;;;6.75;;
45784;SDS011;31489;51.404;5.474;2024-02-26T12:47:39;8.48;;;6.88;;
45784;SDS011;31489;51.404;5.474;2024-02-26T12:50:09;9.77;;;7.20;;
45784;SDS011;31489;51.404;5.474;2024-02-26T12:52:36;8.57;;;6.47;;
45784;SDS011;31489;51.404;5.474;2024-02-26T12:55:08;8.05;;;7.05;;
45784;SDS011;31489;51.404;5.474;2024-02-26T12:57:37;8.45;;;6.78;;
45784;SDS011;31489;51.404;5.474;2024-02-26T13:00:07;11.65;;;8.20;;
45784;SDS011;31489;51.404;5.474;2024-02-26T13:02:36;10.18;;;7.97;;
45784;SDS011;31489;51.404;5.474;2024-02-26T13:05:04;8.68;;;7.18;;
45784;SDS011;31489;51.404;5.474;2024-02-26T13:07:33;9.65;;;7.80;;
45784;SDS011;31489;51.404;5.474;2024-02-26T13:09:59;9.27;;;7.68;;
45784;SDS011;31489;51.404;5.474;2024-02-26T13:12:26;11.13;;;8.35;;
45784;SDS011;31489;51.404;5.474;2024-02-26T13:15:01;9.63;;;7.50;;
45784;SDS011;31489;51.404;5.474;2024-02-26T13:17:31;10.10;;;7.63;;
45784;SDS011;31489;51.404;5.474;2024-02-26T13:19:57;9.65;;;7.80;;
45784;SDS011;31489;51.404;5.474;2024-02-26T13:22:22;11.13;;;9.00;;
45784;SDS011;31489;51.404;5.474;2024-02-26T13:24:55;10.35;;;8.43;;
45784;SDS011;31489;51.404;5.474;2024-02-26T13:27:24;9.18;;;8.20;;
45784;SDS011;31489;51.404;5.474;2024-02-26T13:32:31;11.80;;;9.10;;
45784;SDS011;31489;51.404;5.474;2024-02-26T13:35:08;9.98;;;8.45;;
45784;SDS011;31489;51.404;5.474;2024-02-26T13:37:35;11.73;;;8.70;;
45784;SDS011;31489;51.404;5.474;2024-02-26T13:40:08;10.93;;;8.45;;
45784;SDS011;31489;51.404;5.474;2024-02-26T13:42:36;9.38;;;7.78;;
45784;SDS011;31489;51.404;5.474;2024-02-26T13:45:02;10.93;;;8.07;;
45784;SDS011;31489;51.404;5.474;2024-02-26T13:47:31;11.40;;;8.70;;
45784;SDS011;31489;51.404;5.474;2024-02-26T13:49:57;8.88;;;7.18;;
45784;SDS011;31489;51.404;5.474;2024-02-26T13:52:26;10.25;;;8.02;;
45784;SDS011;31489;51.404;5.474;2024-02-26T13:54:52;9.57;;;7.68;;
45784;SDS011;31489;51.404;5.474;2024-02-26T13:57:21;9.63;;;7.63;;
45784;SDS011;31489;51.404;5.474;2024-02-26T13:59:46;9.57;;;7.88;;
45784;SDS011;31489;51.404;5.474;2024-02-26T14:02:12;8.77;;;7.32;;
45784;SDS011;31489;51.404;5.474;2024-02-26T14:04:41;9.10;;;7.25;;
45784;SDS011;31489;51.404;5.474;2024-02-26T14:07:07;9.38;;;7.13;;
45784;SDS011;31489;51.404;5.474;2024-02-26T14:09:35;8.65;;;6.25;;
45784;SDS011;31489;51.404;5.474;2024-02-26T14:12:01;9.75;;;7.40;;
45784;SDS011;31489;51.404;5.474;2024-02-26T14:14:27;7.35;;;6.45;;
45784;SDS011;31489;51.404;5.474;2024-02-26T14:16:53;9.30;;;6.85;;
45784;SDS011;31489;51.404;5.474;2024-02-26T14:19:19;7.85;;;5.93;;
45784;SDS011;31489;51.404;5.474;2024-02-26T14:21:44;8.07;;;6.45;;
45784;SDS011;31489;51.404;5.474;2024-02-26T14:24:10;7.07;;;6.15;;
45784;SDS011;31489;51.404;5.474;2024-02-26T14:26:36;7.78;;;6.05;;
45784;SDS011;31489;51.404;5.474;2024-02-26T14:29:02;7.45;;;5.70;;
45784;SDS011;31489;51.404;5.474;2024-02-26T14:31:28;7.88;;;5.63;;
45784;SDS011;31489;51.404;5.474;2024-02-26T14:33:54;7.18;;;5.78;;
45784;SDS011;31489;51.404;5.474;2024-02-26T14:36:20;7.60;;;6.18;;
45784;SDS011;31489;51.404;5.474;2024-02-26T14:38:49;6.78;;;5.47;;
45784;SDS011;31489;51.404;5.474;2024-02-26T14:41:15;6.50;;;5.35;;
45784;SDS011;31489;51.404;5.474;2024-02-26T14:43:41;6.95;;;5.43;;
45784;SDS011;31489;51.404;5.474;2024-02-26T14:46:07;7.00;;;5.65;;
45784;SDS011;31489;51.404;5.474;2024-02-26T14:48:33;5.68;;;4.97;;
45784;SDS011;31489;51.404;5.474;2024-02-26T14:50:59;6.25;;;4.95;;